createdAt,value
2023-03-30T00:01:23.095Z,95134.75
2023-03-30T00:03:49.931Z,95133.94
2023-03-30T00:06:22.642Z,95139.50
2023-03-30T00:08:53.266Z,95130.66
2023-03-30T00:11:23.103Z,95128.84
2023-03-30T00:13:50.687Z,95127.13
2023-03-30T00:16:18.293Z,95121.06
2023-03-30T00:18:45.093Z,95125.31
2023-03-30T00:21:11.962Z,95111.41
2023-03-30T00:23:39.441Z,95102.31
2023-03-30T00:26:07.403Z,95111.47
2023-03-30T00:28:34.682Z,95103.97
2023-03-30T00:31:01.526Z,95093.38
2023-03-30T00:33:44.092Z,95091.09
2023-03-30T00:36:12.385Z,95090.69
2023-03-30T00:38:39.062Z,95089.66
2023-03-30T00:41:07.118Z,95085.94
2023-03-30T00:43:33.941Z,95080.59
2023-03-30T00:46:01.024Z,95083.03
2023-03-30T00:48:33.011Z,95076.94
2023-03-30T00:51:09.759Z,95066.84
2023-03-30T00:53:39.742Z,95066.59
2023-03-30T00:56:09.777Z,95064.16
2023-03-30T00:58:38.727Z,95071.75
2023-03-30T01:01:10.294Z,95068.34
2023-03-30T01:03:43.433Z,95067.31
2023-03-30T01:06:10.836Z,95071.13
2023-03-30T01:08:37.975Z,95067.50
2023-03-30T01:11:06.847Z,95060.78
2023-03-30T01:13:40.113Z,95058.97
2023-03-30T01:16:38.371Z,95055.25
2023-03-30T01:19:08.089Z,95056.59
2023-03-30T01:22:00.206Z,95055.25
2023-03-30T01:24:49.111Z,95062.97
2023-03-30T01:27:46.080Z,95060.03
2023-03-30T01:30:15.564Z,95050.91
2023-03-30T01:33:16.332Z,95043.34
2023-03-30T01:35:48.956Z,95057.09
2023-03-30T01:38:31.053Z,95046.16
2023-03-30T01:41:16.425Z,95036.88
2023-03-30T01:44:04.698Z,95039.41
2023-03-30T01:46:40.507Z,95032.59
2023-03-30T01:49:23.069Z,95031.63
2023-03-30T01:52:13.525Z,95029.50
2023-03-30T01:54:47.954Z,95035.41
2023-03-30T01:57:23.630Z,95037.94
2023-03-30T01:59:56.481Z,95046.22
2023-03-30T02:02:28.071Z,95047.59
2023-03-30T02:04:59.201Z,95047.38
2023-03-30T02:07:30.788Z,95056.44
2023-03-30T02:10:02.941Z,95052.41
2023-03-30T02:12:30.836Z,95053.19
2023-03-30T02:15:04.655Z,95054.25
2023-03-30T02:17:31.992Z,95051.25
2023-03-30T02:19:59.839Z,95054.50
2023-03-30T02:22:29.383Z,95060.75
2023-03-30T02:24:58.261Z,95058.00
2023-03-30T02:27:25.419Z,95060.06
2023-03-30T02:29:52.513Z,95057.88
2023-03-30T02:32:22.282Z,95059.91
2023-03-30T02:35:12.386Z,95067.84
2023-03-30T02:38:11.672Z,95074.63
2023-03-30T02:41:07.148Z,95087.34
2023-03-30T02:43:44.355Z,95087.34
2023-03-30T02:46:23.073Z,95108.34
2023-03-30T02:49:08.293Z,95111.28
2023-03-30T02:51:49.108Z,95109.22
2023-03-30T02:54:38.549Z,95115.91
2023-03-30T02:57:23.169Z,95120.84
2023-03-30T02:59:51.186Z,95117.53
2023-03-30T03:02:22.229Z,95121.16
2023-03-30T03:04:56.270Z,95119.91
2023-03-30T03:07:41.802Z,95117.41
2023-03-30T03:10:09.148Z,95119.16
2023-03-30T03:12:36.087Z,95113.88
2023-03-30T03:15:03.834Z,95110.72
2023-03-30T03:17:34.732Z,95118.13
2023-03-30T03:20:04.263Z,95111.25
2023-03-30T03:22:31.372Z,95112.13
2023-03-30T03:24:58.079Z,95111.00
2023-03-30T03:27:33.311Z,95096.16
2023-03-30T03:30:11.670Z,95085.84
2023-03-30T03:32:44.873Z,95077.59
2023-03-30T03:35:12.147Z,95074.53
2023-03-30T03:37:38.700Z,95073.63
2023-03-30T03:40:10.217Z,95075.84
2023-03-30T03:42:37.086Z,95089.44
2023-03-30T03:45:12.159Z,95104.53
2023-03-30T03:47:51.724Z,95111.63
2023-03-30T03:50:23.553Z,95118.56
2023-03-30T03:52:50.358Z,95138.06
2023-03-30T03:55:17.186Z,95143.50
2023-03-30T03:57:45.065Z,95155.41
2023-03-30T04:00:18.225Z,95170.00
2023-03-30T04:02:49.954Z,95164.53
2023-03-30T04:05:16.582Z,95162.44
2023-03-30T04:07:46.210Z,95162.44
2023-03-30T04:10:14.506Z,95152.94
2023-03-30T04:13:16.362Z,95155.88
2023-03-30T04:16:08.245Z,95162.88
2023-03-30T04:18:46.720Z,95167.53
2023-03-30T04:21:49.446Z,95173.34
2023-03-30T04:24:35.503Z,95173.88
2023-03-30T04:27:28.700Z,95181.13
2023-03-30T04:30:14.077Z,95185.38
2023-03-30T04:33:03.462Z,95193.84
2023-03-30T04:35:53.748Z,95201.78
2023-03-30T04:38:25.941Z,95202.69
2023-03-30T04:41:15.037Z,95208.97
2023-03-30T04:44:09.744Z,95210.31
2023-03-30T04:46:56.886Z,95213.34
2023-03-30T04:49:46.164Z,95203.22
2023-03-30T04:52:41.953Z,95190.63
2023-03-30T04:55:27.246Z,95192.25
2023-03-30T04:58:12.784Z,95187.19
2023-03-30T05:00:56.422Z,95176.53
2023-03-30T05:03:39.487Z,95176.09
2023-03-30T05:06:32.237Z,95172.09
2023-03-30T05:09:24.782Z,95167.22
2023-03-30T05:12:23.787Z,95158.63
2023-03-30T05:15:13.433Z,95153.59
2023-03-30T05:18:11.319Z,95161.16
2023-03-30T05:20:57.997Z,95155.06
2023-03-30T05:23:44.011Z,95152.03
2023-03-30T05:26:29.368Z,95155.06
2023-03-30T05:29:14.707Z,95136.47
2023-03-30T05:32:00.031Z,95135.66
2023-03-30T05:34:43.149Z,95135.22
2023-03-30T05:37:21.499Z,95125.81
2023-03-30T05:40:23.536Z,95122.09
2023-03-30T05:43:09.290Z,95109.63
2023-03-30T05:45:53.138Z,95097.22
2023-03-30T05:48:31.200Z,95094.59
2023-03-30T05:51:20.647Z,95088.88
2023-03-30T05:53:59.247Z,95087.50
2023-03-30T05:56:51.822Z,95082.22
2023-03-30T05:59:41.948Z,95078.94
2023-03-30T06:02:22.228Z,95065.03
2023-03-30T06:04:50.337Z,95068.09
2023-03-30T06:07:17.966Z,95055.94
2023-03-30T06:09:44.697Z,95052.13
2023-03-30T06:12:25.387Z,95043.59
2023-03-30T06:14:52.054Z,95032.31
2023-03-30T06:17:30.421Z,95037.56
2023-03-30T06:19:57.356Z,95026.03
2023-03-30T06:22:23.969Z,95031.34
2023-03-30T06:25:10.911Z,95024.09
2023-03-30T06:27:37.758Z,95026.06
2023-03-30T06:30:05.073Z,95029.41
2023-03-30T06:32:32.001Z,95019.13
2023-03-30T06:35:17.197Z,95012.63
2023-03-30T06:37:44.541Z,95010.19
2023-03-30T06:40:13.480Z,95004.56
2023-03-30T06:42:44.060Z,94988.72
2023-03-30T06:45:19.362Z,94996.06
2023-03-30T06:47:47.651Z,94985.09
2023-03-30T06:50:15.149Z,94980.84
2023-03-30T06:52:53.019Z,94970.09
2023-03-30T06:55:21.866Z,94963.94
2023-03-30T06:57:48.518Z,94946.66
2023-03-30T07:00:15.425Z,94944.44
2023-03-30T07:02:42.859Z,94943.44
2023-03-30T07:05:13.051Z,94941.25
2023-03-30T07:08:07.617Z,94945.50
2023-03-30T07:10:35.671Z,94938.81
2023-03-30T07:13:03.530Z,94938.91
2023-03-30T07:15:31.430Z,94927.00
2023-03-30T07:17:58.368Z,94935.66
2023-03-30T07:20:27.429Z,94924.19
2023-03-30T07:23:12.917Z,94926.84
2023-03-30T07:25:41.965Z,94923.28
2023-03-30T07:28:31.578Z,94919.06
2023-03-30T07:31:07.082Z,94928.69
2023-03-30T07:33:36.997Z,94933.72
2023-03-30T07:36:05.741Z,94915.19
2023-03-30T07:38:33.339Z,94917.16
2023-03-30T07:41:00.692Z,94920.28
2023-03-30T07:43:28.304Z,94926.63
2023-03-30T07:45:56.664Z,94940.41
2023-03-30T07:48:30.736Z,94928.13
2023-03-30T07:51:06.790Z,94923.31
2023-03-30T07:53:37.356Z,94921.53
2023-03-30T07:56:12.050Z,94911.97
2023-03-30T07:58:44.306Z,94902.63
2023-03-30T08:01:11.153Z,94922.94
2023-03-30T08:04:07.351Z,94912.19
2023-03-30T08:06:35.857Z,94884.09
2023-03-30T08:09:04.357Z,94890.63
2023-03-30T08:11:31.777Z,94893.88
2023-03-30T08:13:58.343Z,94888.38
2023-03-30T08:16:24.925Z,94896.31
2023-03-30T08:18:55.074Z,94891.84
2023-03-30T08:21:25.533Z,94881.41
2023-03-30T08:23:53.157Z,94883.47
2023-03-30T08:26:20.556Z,94880.38
2023-03-30T08:28:47.362Z,94872.78
2023-03-30T08:31:13.986Z,94861.34
2023-03-30T08:33:41.003Z,94866.34
2023-03-30T08:36:07.691Z,94863.63
2023-03-30T08:38:34.346Z,94870.56
2023-03-30T08:41:01.121Z,94889.34
2023-03-30T08:43:42.576Z,94874.91
2023-03-30T08:46:15.999Z,94874.72
2023-03-30T08:48:43.078Z,94874.91
2023-03-30T08:51:23.544Z,94877.13
2023-03-30T08:54:01.408Z,94881.50
2023-03-30T08:56:35.463Z,94874.66
2023-03-30T08:59:23.139Z,94862.28
2023-03-30T09:02:21.908Z,94855.56
2023-03-30T09:05:06.875Z,94854.66
2023-03-30T09:07:41.839Z,94858.53
2023-03-30T09:10:13.867Z,94867.19
2023-03-30T09:12:46.851Z,94870.69
2023-03-30T09:15:21.129Z,94859.28
2023-03-30T09:17:54.027Z,94864.41
2023-03-30T09:20:20.695Z,94866.97
2023-03-30T09:22:48.593Z,94874.38
2023-03-30T09:25:24.064Z,94883.72
2023-03-30T09:28:05.802Z,94877.69
2023-03-30T09:30:54.474Z,94889.44
2023-03-30T09:33:43.199Z,94875.28
2023-03-30T09:36:15.418Z,94876.06
2023-03-30T09:38:42.838Z,94878.34
2023-03-30T09:41:18.612Z,94887.28
2023-03-30T09:43:46.348Z,94885.00
2023-03-30T09:46:16.600Z,94885.78
2023-03-30T09:48:48.363Z,94890.72
2023-03-30T09:51:29.209Z,94892.19
2023-03-30T09:54:04.267Z,94893.78
2023-03-30T09:56:46.785Z,94891.19
2023-03-30T09:59:45.519Z,94892.13
2023-03-30T10:02:18.092Z,94882.41
2023-03-30T10:04:53.784Z,94886.03
2023-03-30T10:07:33.436Z,94877.41
2023-03-30T10:10:27.318Z,94874.94
2023-03-30T10:13:03.354Z,94878.19
2023-03-30T10:15:35.399Z,94877.69
2023-03-30T10:18:27.807Z,94875.63
2023-03-30T10:21:02.522Z,94880.59
2023-03-30T10:23:39.816Z,94878.16
2023-03-30T10:26:15.297Z,94879.22
2023-03-30T10:28:54.907Z,94889.06
2023-03-30T10:31:25.644Z,94890.31
2023-03-30T10:33:59.515Z,94894.53
2023-03-30T10:36:37.079Z,94901.06
2023-03-30T10:39:17.904Z,94900.75
2023-03-30T10:41:47.102Z,94909.06
2023-03-30T10:44:38.339Z,94916.47
2023-03-30T10:47:44.578Z,94923.97
2023-03-30T10:50:37.404Z,94930.97
2023-03-30T10:53:36.073Z,94955.31
2023-03-30T10:56:23.005Z,94953.22
2023-03-30T10:59:26.663Z,94964.56
2023-03-30T11:02:22.384Z,94962.78
2023-03-30T11:04:56.177Z,94966.06
2023-03-30T11:07:29.784Z,94990.06
2023-03-30T11:10:04.655Z,94986.38
2023-03-30T11:12:39.141Z,95001.56
2023-03-30T11:15:26.435Z,94995.25
2023-03-30T11:18:13.129Z,94998.69
2023-03-30T11:20:51.363Z,94998.56
2023-03-30T11:23:45.462Z,95006.13
2023-03-30T11:26:17.858Z,95007.34
2023-03-30T11:28:56.758Z,95027.94
2023-03-30T11:31:47.090Z,95039.25
2023-03-30T11:34:36.737Z,95038.97
2023-03-30T11:37:29.614Z,95039.69
2023-03-30T11:40:12.599Z,95045.09
2023-03-30T11:42:39.310Z,95040.25
2023-03-30T11:45:36.152Z,95051.00
2023-03-30T11:48:18.137Z,95040.78
2023-03-30T11:50:53.653Z,95058.91
2023-03-30T11:53:58.485Z,95077.06
2023-03-30T11:56:28.084Z,95086.25
2023-03-30T11:59:04.761Z,95104.44
2023-03-30T12:01:55.735Z,95113.13
2023-03-30T12:04:48.061Z,95120.81
2023-03-30T12:07:31.765Z,95123.31
2023-03-30T12:10:09.843Z,95121.91
2023-03-30T12:12:39.351Z,95115.38
2023-03-30T12:15:34.163Z,95110.06
2023-03-30T12:18:08.567Z,95122.31
2023-03-30T12:20:57.813Z,95103.19
2023-03-30T12:23:55.420Z,95095.91
2023-03-30T12:26:31.381Z,95093.91
2023-03-30T12:32:03.882Z,95090.38
2023-03-30T12:34:36.255Z,95075.38
2023-03-30T12:37:22.290Z,95065.00
2023-03-30T12:39:53.571Z,95039.53
2023-03-30T12:42:26.467Z,95059.75
2023-03-30T12:45:05.769Z,95060.03
2023-03-30T12:47:48.659Z,95061.50
2023-03-30T12:50:33.537Z,95063.31
2023-03-30T12:53:31.117Z,95061.03
2023-03-30T12:56:24.075Z,95061.88
2023-03-30T12:59:08.211Z,95061.59
2023-03-30T13:01:37.878Z,95055.06
2023-03-30T13:04:16.532Z,95047.13
2023-03-30T13:06:56.820Z,95044.81
2023-03-30T13:09:26.315Z,95046.06
2023-03-30T13:11:53.055Z,95038.13
2023-03-30T13:14:39.207Z,95045.59
2023-03-30T13:17:11.212Z,95038.56
2023-03-30T13:19:37.928Z,95035.50
2023-03-30T13:22:11.082Z,95028.78
2023-03-30T13:24:44.343Z,95025.94
2023-03-30T13:27:11.285Z,95021.03
2023-03-30T13:29:37.956Z,95020.78
2023-03-30T13:32:28.479Z,95019.91
2023-03-30T13:35:07.574Z,95006.25
2023-03-30T13:38:09.928Z,95007.28
2023-03-30T13:41:04.045Z,95000.81
2023-03-30T13:43:58.271Z,95012.44
2023-03-30T13:46:45.970Z,95007.81
2023-03-30T13:49:28.845Z,95006.59
2023-03-30T13:52:04.066Z,95005.00
2023-03-30T13:54:33.731Z,95011.16
2023-03-30T13:57:13.800Z,94995.69
2023-03-30T13:59:47.908Z,95011.72
2023-03-30T14:02:16.809Z,95015.00
2023-03-30T14:04:49.295Z,95033.97
2023-03-30T14:07:19.093Z,95022.38
2023-03-30T14:10:04.753Z,95019.91
2023-03-30T14:12:33.886Z,95015.75
2023-03-30T14:15:01.817Z,95025.38
2023-03-30T14:17:28.406Z,95030.25
2023-03-30T14:20:18.899Z,95014.00
2023-03-30T14:22:48.362Z,95018.22
2023-03-30T14:25:29.166Z,95020.88
2023-03-30T14:28:07.508Z,95016.03
2023-03-30T14:30:34.839Z,95017.31
2023-03-30T14:33:12.830Z,94993.59
2023-03-30T14:35:59.488Z,94972.44
2023-03-30T14:38:38.220Z,94966.09
2023-03-30T14:41:16.766Z,94955.50
2023-03-30T14:43:52.367Z,94953.41
2023-03-30T14:46:19.158Z,94961.84
2023-03-30T14:48:50.484Z,94963.94
2023-03-30T14:51:37.216Z,94965.97
2023-03-30T14:54:04.997Z,94959.84
2023-03-30T14:56:32.014Z,94952.63
2023-03-30T14:58:59.480Z,94956.72
2023-03-30T15:01:31.404Z,94954.34
2023-03-30T15:04:27.358Z,94953.34
2023-03-30T15:06:54.015Z,94950.00
2023-03-30T15:09:23.831Z,94964.47
2023-03-30T15:12:01.882Z,94962.00
2023-03-30T15:14:36.539Z,94973.75
2023-03-30T15:17:10.560Z,94973.28
2023-03-30T15:19:38.516Z,94969.06
2023-03-30T15:22:27.131Z,94979.41
2023-03-30T15:24:55.789Z,94976.84
2023-03-30T15:27:23.304Z,94974.78
2023-03-30T15:29:50.064Z,94970.88
2023-03-30T15:32:18.870Z,94979.50
2023-03-30T15:35:04.189Z,94967.63
2023-03-30T15:37:32.127Z,94955.41
2023-03-30T15:39:58.748Z,94952.38
2023-03-30T15:42:30.137Z,94953.91
2023-03-30T15:45:11.571Z,94949.63
2023-03-30T15:47:38.748Z,94948.44
2023-03-30T15:50:11.405Z,94938.56
2023-03-30T15:52:43.194Z,94929.56
2023-03-30T15:55:27.684Z,94932.56
2023-03-30T15:57:54.954Z,94937.56
2023-03-30T16:00:28.932Z,94929.41
2023-03-30T16:02:59.599Z,94947.94
2023-03-30T16:05:31.743Z,94944.63
2023-03-30T16:07:58.530Z,94937.41
2023-03-30T16:10:28.755Z,94939.94
2023-03-30T16:12:57.315Z,94946.25
2023-03-30T16:15:26.467Z,94948.78
2023-03-30T16:17:53.072Z,94942.50
2023-03-30T16:20:29.113Z,94955.97
2023-03-30T16:22:56.076Z,94954.69
2023-03-30T16:25:41.758Z,94958.41
2023-03-30T16:28:16.142Z,94954.06
2023-03-30T16:30:46.138Z,94954.78
2023-03-30T16:33:12.732Z,94954.91
2023-03-30T16:35:39.441Z,94960.69
2023-03-30T16:38:06.053Z,94970.63
2023-03-30T16:40:40.276Z,94953.34
2023-03-30T16:43:09.188Z,94966.16
2023-03-30T16:45:36.104Z,94958.66
2023-03-30T16:48:02.716Z,94961.16
2023-03-30T16:50:41.095Z,94957.22
2023-03-30T16:53:09.708Z,94950.31
2023-03-30T16:55:37.601Z,94957.22
2023-03-30T16:58:06.059Z,94950.38
2023-03-30T17:00:47.938Z,94940.75
2023-03-30T17:03:14.979Z,94944.84
2023-03-30T17:05:42.511Z,94950.19
2023-03-30T17:08:21.104Z,94948.69
2023-03-30T17:10:48.294Z,94947.97
2023-03-30T17:13:14.830Z,94965.28
2023-03-30T17:15:41.611Z,94962.13
2023-03-30T17:18:17.592Z,94963.53
2023-03-30T17:20:48.140Z,94975.66
2023-03-30T17:23:18.614Z,94967.63
2023-03-30T17:25:47.509Z,94968.56
2023-03-30T17:28:30.211Z,94984.44
2023-03-30T17:30:59.099Z,94986.34
2023-03-30T17:33:26.183Z,94981.84
2023-03-30T17:35:59.656Z,94974.31
2023-03-30T17:38:26.228Z,94974.69
2023-03-30T17:40:52.765Z,94963.38
2023-03-30T17:43:19.462Z,94967.41
2023-03-30T17:45:46.884Z,94969.34
2023-03-30T17:48:16.589Z,94970.63
2023-03-30T17:50:46.455Z,94977.97
2023-03-30T17:53:17.274Z,94972.00
2023-03-30T17:55:45.761Z,94966.16
2023-03-30T17:58:26.032Z,94965.59
2023-03-30T18:00:53.426Z,94975.19
2023-03-30T18:03:21.604Z,94977.25
2023-03-30T18:05:50.582Z,94990.84
2023-03-30T18:08:21.240Z,94992.75
2023-03-30T18:10:51.504Z,94997.88
2023-03-30T18:13:20.397Z,94975.94
2023-03-30T18:15:49.673Z,94953.09
2023-03-30T18:18:22.639Z,94971.59
2023-03-30T18:20:50.560Z,94975.25
2023-03-30T18:23:17.717Z,94980.94
2023-03-30T18:25:44.467Z,94983.75
2023-03-30T18:28:17.096Z,94990.63
2023-03-30T18:30:43.803Z,94984.41
2023-03-30T18:33:10.482Z,94994.84
2023-03-30T18:35:37.292Z,94998.63
2023-03-30T18:38:04.617Z,94992.84
2023-03-30T18:40:37.239Z,95005.66
2023-03-30T18:43:04.615Z,95004.31
2023-03-30T18:45:42.715Z,95020.56
2023-03-30T18:48:12.942Z,95014.47
2023-03-30T18:50:41.201Z,95027.22
2023-03-30T18:53:13.439Z,95023.41
2023-03-30T18:55:43.041Z,95022.28
2023-03-30T18:58:31.280Z,95016.28
2023-03-30T19:00:57.890Z,95024.44
2023-03-30T19:03:25.640Z,95018.81
2023-03-30T19:05:52.789Z,95017.25
2023-03-30T19:08:21.868Z,95014.25
2023-03-30T19:10:51.441Z,95022.00
2023-03-30T19:13:20.594Z,95026.25
2023-03-30T19:15:49.019Z,95026.72
2023-03-30T19:18:17.690Z,95039.69
2023-03-30T19:20:45.029Z,95037.06
2023-03-30T19:23:14.081Z,95050.28
2023-03-30T19:25:41.741Z,95042.13
2023-03-30T19:28:09.585Z,95039.38
2023-03-30T19:30:39.587Z,95045.44
2023-03-30T19:33:11.085Z,95053.47
2023-03-30T19:35:45.992Z,95047.56
2023-03-30T19:38:13.453Z,95055.63
2023-03-30T19:40:40.911Z,95061.53
2023-03-30T19:43:07.649Z,95069.00
2023-03-30T19:45:34.481Z,95070.91
2023-03-30T19:48:01.242Z,95064.53
2023-03-30T19:50:29.932Z,95094.91
2023-03-30T19:52:57.738Z,95120.75
2023-03-30T19:55:24.502Z,95130.41
2023-03-30T19:57:51.082Z,95123.56
2023-03-30T20:00:18.834Z,95132.41
2023-03-30T20:02:51.279Z,95128.38
2023-03-30T20:05:19.646Z,95147.44
2023-03-30T20:07:46.939Z,95156.50
2023-03-30T20:10:18.863Z,95154.50
2023-03-30T20:12:46.809Z,95148.50
2023-03-30T20:15:13.812Z,95127.19
2023-03-30T20:17:40.437Z,95104.78
2023-03-30T20:20:09.357Z,95097.91
2023-03-30T20:22:37.839Z,95077.47
2023-03-30T20:25:07.551Z,95072.84
2023-03-30T20:27:35.139Z,95080.41
2023-03-30T20:30:02.415Z,95074.03
2023-03-30T20:32:28.968Z,95088.00
2023-03-30T20:34:55.564Z,95082.25
2023-03-30T20:37:22.184Z,95080.25
2023-03-30T20:39:51.737Z,95070.09
2023-03-30T20:42:25.937Z,95070.03
2023-03-30T20:44:53.574Z,95062.34
2023-03-30T20:47:23.136Z,95057.72
2023-03-30T20:49:49.770Z,95051.34
2023-03-30T20:52:16.672Z,95048.66
2023-03-30T20:54:44.474Z,95041.91
2023-03-30T20:57:11.204Z,95040.13
2023-03-30T20:59:39.258Z,95041.75
2023-03-30T21:02:05.884Z,95034.34
2023-03-30T21:04:36.645Z,95043.03
2023-03-30T21:07:03.738Z,95038.94
2023-03-30T21:09:30.602Z,95046.13
2023-03-30T21:11:57.250Z,95041.34
2023-03-30T21:14:24.104Z,95037.63
2023-03-30T21:16:50.881Z,95036.38
2023-03-30T21:19:17.477Z,95031.09
2023-03-30T21:21:44.599Z,95026.38
2023-03-30T21:24:11.600Z,95026.00
2023-03-30T21:26:38.224Z,95026.28
2023-03-30T21:29:05.761Z,95024.47
2023-03-30T21:31:32.597Z,95023.69
2023-03-30T21:33:59.852Z,95017.03
2023-03-30T21:36:26.575Z,95018.41
2023-03-30T21:38:53.172Z,95010.72
2023-03-30T21:41:24.148Z,95002.97
2023-03-30T21:43:50.810Z,95005.88
2023-03-30T21:46:21.270Z,95005.41
2023-03-30T21:48:51.789Z,95001.72
2023-03-30T21:51:22.836Z,95005.22
2023-03-30T21:53:51.270Z,95001.78
2023-03-30T21:56:20.334Z,94999.50
2023-03-30T21:58:46.862Z,94996.84
2023-03-30T22:01:14.178Z,94997.38
2023-03-30T22:03:42.176Z,94995.84
2023-03-30T22:06:11.329Z,94997.00
2023-03-30T22:08:38.124Z,94992.81
2023-03-30T22:11:25.956Z,94988.22
2023-03-30T22:13:54.384Z,94985.66
2023-03-30T22:16:23.821Z,94979.84
2023-03-30T22:18:51.161Z,94985.34
2023-03-30T22:21:20.867Z,94974.34
2023-03-30T22:23:47.546Z,94971.72
2023-03-30T22:26:14.413Z,94971.44
2023-03-30T22:28:41.518Z,94969.16
2023-03-30T22:31:14.204Z,94973.16
2023-03-30T22:33:41.425Z,94972.41
2023-03-30T22:36:19.725Z,94977.31
2023-03-30T22:38:50.756Z,94966.06
2023-03-30T22:41:18.785Z,94963.34
2023-03-30T22:43:45.417Z,94962.69
2023-03-30T22:46:12.096Z,94954.41
2023-03-30T22:48:41.264Z,94960.13
2023-03-30T22:51:14.203Z,94958.69
2023-03-30T22:53:40.928Z,94944.47
2023-03-30T22:56:07.974Z,94939.72
2023-03-30T22:58:35.921Z,94934.13
2023-03-30T23:01:06.903Z,94943.75
2023-03-30T23:03:33.686Z,94926.31
2023-03-30T23:06:01.595Z,94927.47
2023-03-30T23:08:29.462Z,94922.66
2023-03-30T23:10:57.275Z,94925.28
2023-03-30T23:13:23.875Z,94920.28
2023-03-30T23:15:50.700Z,94907.03
2023-03-30T23:18:17.238Z,94908.22
2023-03-30T23:20:46.723Z,94902.63
2023-03-30T23:23:14.440Z,94899.16
2023-03-30T23:25:50.032Z,94899.38
2023-03-30T23:28:17.496Z,94904.28
2023-03-30T23:30:47.318Z,94898.28
2023-03-30T23:33:13.927Z,94902.53
2023-03-30T23:35:47.340Z,94901.09
2023-03-30T23:38:14.008Z,94890.91
2023-03-30T23:40:40.543Z,94891.91
2023-03-30T23:43:07.049Z,94890.22
2023-03-30T23:45:33.653Z,94892.63
2023-03-30T23:48:01.163Z,94890.22
2023-03-30T23:50:28.922Z,94881.97
2023-03-30T23:52:55.700Z,94884.16
2023-03-30T23:55:24.468Z,94880.88
2023-03-30T23:57:51.006Z,94866.75
